Old Willapa, Washington
Current Conditions -  °F | °C
As of 8:53 AM on Saturday 25 Oct 2014 (Local Time) from KHQM Reporting Station
Few Clouds Few Clouds  
Wind Chill: 53°   Ceiling: Unl
Heat Index: 53°   Visibility: 8mi
Dew Point: 50°   Wind: 14mph
Humidity: 89%   Direction: 50°NE
Pressure: 29.43"   Gusts: NA
Location:  46.6563°N, 123.58°W
Report Text: KHQM 251553Z AUTO 05012KT 8SM FEW090 12/10 A2943 RMK AO2 RAE05 PRESFR SLP971 P0001 T01170100
Loading
Personal Weather Stations






























Interactive Weather Map
Tropical Storm Tracking
New forecast layout! Learn more

10-Day Weather Forecast

Advertisements
Track Severe Weather on mobile